createdAt,value
2023-01-27T00:02:05.420Z,9.48
2023-01-27T00:07:06.936Z,12.10
2023-01-27T00:12:19.296Z,10.00
2023-01-27T00:17:20.821Z,7.85
2023-01-27T00:22:22.268Z,10.20
2023-01-27T00:27:23.801Z,8.35
2023-01-27T00:32:25.307Z,12.73
2023-01-27T00:37:26.833Z,11.32
2023-01-27T00:42:28.274Z,9.23
2023-01-27T00:47:29.740Z,12.57
2023-01-27T00:52:31.250Z,7.88
2023-01-27T00:57:32.758Z,9.10
2023-01-27T01:02:34.226Z,11.68
2023-01-27T01:07:36.281Z,9.25
2023-01-27T01:12:37.780Z,13.65
2023-01-27T01:17:39.227Z,7.55
2023-01-27T01:22:40.770Z,9.13
2023-01-27T01:27:44.751Z,9.25
2023-01-27T01:32:46.251Z,11.15
2023-01-27T01:37:48.268Z,10.10
2023-01-27T01:43:01.105Z,9.32
2023-01-27T01:48:05.229Z,8.90
2023-01-27T01:53:08.457Z,9.82
2023-01-27T01:58:12.670Z,10.02
2023-01-27T02:03:14.758Z,11.88
2023-01-27T02:08:28.229Z,10.85
2023-01-27T02:13:29.739Z,10.65
2023-01-27T02:18:32.332Z,10.80
2023-01-27T02:23:55.375Z,11.90
2023-01-27T02:29:11.288Z,9.93
2023-01-27T02:34:16.655Z,11.88
2023-01-27T02:39:22.151Z,12.20
2023-01-27T02:44:23.881Z,9.02
2023-01-27T02:49:25.493Z,8.55
2023-01-27T02:54:29.614Z,9.02
2023-01-27T02:59:31.820Z,10.90
2023-01-27T03:04:33.473Z,9.95
2023-01-27T03:09:35.025Z,12.73
2023-01-27T03:14:36.498Z,9.00
2023-01-27T03:19:37.986Z,16.73
2023-01-27T03:24:39.689Z,9.63
2023-01-27T03:29:41.577Z,10.93
2023-01-27T03:34:43.154Z,12.43
2023-01-27T03:44:54.360Z,12.50
2023-01-27T03:49:55.796Z,12.90
2023-01-27T03:54:57.240Z,10.50
2023-01-27T03:59:58.778Z,10.93
2023-01-27T04:05:00.241Z,10.57
2023-01-27T04:10:02.705Z,10.10
2023-01-27T04:15:04.804Z,17.65
2023-01-27T04:20:06.821Z,14.23
2023-01-27T04:25:11.610Z,11.70
2023-01-27T04:30:14.131Z,12.68
2023-01-27T04:35:15.643Z,10.43
2023-01-27T04:40:17.257Z,11.05
2023-01-27T04:45:18.761Z,12.27
2023-01-27T04:50:20.221Z,9.57
2023-01-27T04:55:21.656Z,13.00
2023-01-27T05:00:23.207Z,14.52
2023-01-27T05:05:25.010Z,10.07
2023-01-27T05:10:26.485Z,12.43
2023-01-27T05:15:29.223Z,13.35
2023-01-27T05:20:30.856Z,11.00
2023-01-27T05:25:32.290Z,13.38
2023-01-27T05:30:33.855Z,13.27
2023-01-27T05:35:35.434Z,14.05
2023-01-27T05:40:36.936Z,11.60
2023-01-27T05:45:38.419Z,11.75
2023-01-27T05:50:39.897Z,11.32
2023-01-27T05:55:43.571Z,11.88
2023-01-27T06:00:45.486Z,13.15
2023-01-27T06:05:55.430Z,11.45
2023-01-27T06:10:58.761Z,9.77
2023-01-27T06:16:02.669Z,11.65
2023-01-27T06:21:06.687Z,12.55
2023-01-27T06:26:10.952Z,9.35
2023-01-27T06:31:20.825Z,12.02
2023-01-27T06:36:22.745Z,12.70
2023-01-27T06:41:24.271Z,10.27
2023-01-27T06:46:26.062Z,12.90
2023-01-27T06:51:27.587Z,10.45
2023-01-27T06:56:29.066Z,10.48
2023-01-27T07:01:30.637Z,13.98
2023-01-27T07:06:32.201Z,11.30
2023-01-27T07:11:33.741Z,10.68
2023-01-27T07:16:35.262Z,11.90
2023-01-27T07:21:36.805Z,14.32
2023-01-27T07:26:38.583Z,11.23
2023-01-27T07:31:40.307Z,11.93
2023-01-27T07:36:41.841Z,11.52
2023-01-27T07:41:43.351Z,12.95
2023-01-27T07:46:49.572Z,9.60
2023-01-27T07:51:51.141Z,12.80
2023-01-27T07:56:52.651Z,9.23
2023-01-27T08:01:54.341Z,10.68
2023-01-27T08:06:55.843Z,11.90
2023-01-27T08:11:57.352Z,12.48
2023-01-27T08:16:58.898Z,12.30
2023-01-27T08:22:00.434Z,9.80
2023-01-27T08:27:01.910Z,12.13
2023-01-27T08:32:03.557Z,10.35
2023-01-27T08:37:06.300Z,11.85
2023-01-27T08:42:07.832Z,10.98
2023-01-27T08:47:09.297Z,10.40
2023-01-27T08:52:10.820Z,11.45
2023-01-27T08:57:12.292Z,9.18
2023-01-27T09:02:13.751Z,8.95
2023-01-27T09:07:15.290Z,7.85
2023-01-27T09:12:16.985Z,9.90
2023-01-27T09:17:18.540Z,5.82
2023-01-27T09:22:20.120Z,6.57
2023-01-27T09:27:37.088Z,7.22
2023-01-27T09:32:41.096Z,9.10
2023-01-27T09:37:56.358Z,6.30
2023-01-27T09:43:19.037Z,9.35
2023-01-27T09:48:39.319Z,8.13
2023-01-27T09:53:53.061Z,8.02
2023-01-27T09:59:33.027Z,7.30
2023-01-27T10:04:59.177Z,9.10
2023-01-27T10:10:13.040Z,9.68
2023-01-27T10:15:43.973Z,6.63
2023-01-27T10:21:21.426Z,6.38
2023-01-27T10:26:42.147Z,7.00
2023-01-27T10:31:53.070Z,7.28
2023-01-27T10:37:06.779Z,6.50
2023-01-27T10:42:17.380Z,5.47
2023-01-27T10:47:40.611Z,4.47
2023-01-27T10:52:56.885Z,5.10
2023-01-27T10:58:03.491Z,5.30
2023-01-27T11:03:12.579Z,6.97
2023-01-27T11:08:25.555Z,4.30
2023-01-27T11:13:30.624Z,6.22
2023-01-27T11:18:36.019Z,6.20
2023-01-27T11:23:43.584Z,7.13
2023-01-27T11:29:16.497Z,5.43
2023-01-27T11:34:55.781Z,5.82
2023-01-27T11:39:57.431Z,5.55
2023-01-27T11:45:00.745Z,4.70
2023-01-27T11:50:04.308Z,7.50
2023-01-27T11:55:16.123Z,5.30
2023-01-27T12:00:38.409Z,6.95
2023-01-27T12:05:48.853Z,5.18
2023-01-27T12:10:50.474Z,4.63
2023-01-27T12:15:58.870Z,4.65
2023-01-27T12:21:04.831Z,4.30
2023-01-27T12:26:11.315Z,7.97
2023-01-27T12:31:12.816Z,5.45
2023-01-27T12:36:17.781Z,5.45
2023-01-27T12:41:31.011Z,5.90
2023-01-27T12:46:32.739Z,7.32
2023-01-27T12:51:41.831Z,18.23
2023-01-27T12:56:43.603Z,9.38
2023-01-27T13:02:01.747Z,5.32
2023-01-27T13:07:12.411Z,7.43
2023-01-27T13:12:34.317Z,5.65
2023-01-27T13:17:53.762Z,7.20
2023-01-27T13:23:05.835Z,4.78
2023-01-27T13:28:08.497Z,9.10
2023-01-27T13:33:30.410Z,6.15
2023-01-27T13:39:06.856Z,6.72
2023-01-27T13:44:38.883Z,7.03
2023-01-27T13:50:07.121Z,5.55
2023-01-27T13:55:14.062Z,7.32
2023-01-27T14:00:54.248Z,7.50
2023-01-27T14:06:07.770Z,8.55
2023-01-27T14:11:12.227Z,7.90
2023-01-27T14:16:25.012Z,6.28
2023-01-27T14:21:48.498Z,7.97
2023-01-27T14:27:12.853Z,8.65
2023-01-27T14:32:33.353Z,5.82
2023-01-27T14:37:53.810Z,5.03
2023-01-27T14:43:06.805Z,7.97
2023-01-27T14:48:20.359Z,9.27
2023-01-27T14:53:36.955Z,6.30
2023-01-27T14:58:55.271Z,7.03
2023-01-27T15:04:23.408Z,6.22
2023-01-27T15:09:40.652Z,5.10
2023-01-27T15:15:21.042Z,7.10
2023-01-27T15:20:33.950Z,7.45
2023-01-27T15:25:50.043Z,6.03
2023-01-27T15:31:15.930Z,5.47
2023-01-27T15:36:27.929Z,7.00
2023-01-27T15:41:29.498Z,6.68
2023-01-27T15:46:36.515Z,8.77
2023-01-27T15:51:38.433Z,6.72
2023-01-27T15:56:48.110Z,7.53
2023-01-27T16:01:59.374Z,10.15
2023-01-27T16:07:04.557Z,6.05
2023-01-27T16:12:24.565Z,7.65
2023-01-27T16:17:26.212Z,8.73
2023-01-27T16:22:32.027Z,9.48
2023-01-27T16:27:47.786Z,8.15
2023-01-27T16:33:14.754Z,7.93
2023-01-27T16:38:20.541Z,5.70
2023-01-27T16:43:33.374Z,5.15
2023-01-27T16:48:44.900Z,7.22
2023-01-27T16:53:52.193Z,8.25
2023-01-27T16:59:01.775Z,5.22
2023-01-27T17:04:19.177Z,5.90
2023-01-27T17:09:25.636Z,9.13
2023-01-27T17:14:32.931Z,8.68
2023-01-27T17:19:36.654Z,7.15
2023-01-27T17:24:45.199Z,6.47
2023-01-27T17:29:49.462Z,8.55
2023-01-27T17:34:53.707Z,7.05
2023-01-27T17:39:59.214Z,8.15
2023-01-27T17:45:22.584Z,8.93
2023-01-27T17:50:27.305Z,12.40
2023-01-27T17:55:30.180Z,8.95
2023-01-27T18:00:38.130Z,10.32
2023-01-27T18:05:44.135Z,8.50
2023-01-27T18:10:46.521Z,10.13
2023-01-27T18:16:02.804Z,7.88
2023-01-27T18:21:04.313Z,11.10
2023-01-27T18:26:15.339Z,8.05
2023-01-27T18:31:24.526Z,8.48
2023-01-27T18:36:30.266Z,9.05
2023-01-27T18:41:31.876Z,12.45
2023-01-27T18:46:33.396Z,10.98
2023-01-27T18:51:34.897Z,9.57
2023-01-27T18:56:36.425Z,8.65
2023-01-27T19:01:38.020Z,10.98
2023-01-27T19:06:39.587Z,9.88
2023-01-27T19:11:41.097Z,11.82
2023-01-27T19:16:42.618Z,9.73
2023-01-27T19:21:44.149Z,9.88
2023-01-27T19:26:45.807Z,8.95
2023-01-27T19:31:47.359Z,11.85
2023-01-27T19:36:48.941Z,12.88
2023-01-27T19:41:50.411Z,11.07
2023-01-27T19:46:51.957Z,13.40
2023-01-27T19:51:53.459Z,8.30
2023-01-27T19:56:54.906Z,11.40
2023-01-27T20:01:56.498Z,10.68
2023-01-27T20:06:58.031Z,11.73
2023-01-27T20:11:59.584Z,11.02
2023-01-27T20:17:01.075Z,11.48
2023-01-27T20:22:02.565Z,10.95
2023-01-27T20:27:04.169Z,12.75
2023-01-27T20:32:05.872Z,15.55
2023-01-27T20:37:07.414Z,11.52
2023-01-27T20:42:09.166Z,13.40
2023-01-27T20:47:13.956Z,11.27
2023-01-27T20:52:15.407Z,14.35
2023-01-27T20:57:16.853Z,11.95
2023-01-27T21:02:18.393Z,13.10
2023-01-27T21:07:21.474Z,13.40
2023-01-27T21:12:22.952Z,14.25
2023-01-27T21:17:24.426Z,15.90
2023-01-27T21:22:25.870Z,12.43
2023-01-27T21:27:27.330Z,13.52
2023-01-27T21:32:28.781Z,14.35
2023-01-27T21:37:30.260Z,12.30
2023-01-27T21:42:31.750Z,13.38
2023-01-27T21:47:33.188Z,13.50
2023-01-27T21:52:38.137Z,12.55
2023-01-27T21:57:40.388Z,12.70
2023-01-27T22:02:42.644Z,12.45
2023-01-27T22:07:44.180Z,11.98
2023-01-27T22:12:46.420Z,12.60
2023-01-27T22:17:48.027Z,9.57
2023-01-27T22:22:49.597Z,9.75
2023-01-27T22:28:00.288Z,10.93
2023-01-27T22:33:01.766Z,12.55
2023-01-27T22:38:03.281Z,11.95
2023-01-27T22:43:04.719Z,10.88
2023-01-27T22:48:06.203Z,12.35
2023-01-27T22:53:07.738Z,14.75
2023-01-27T22:58:09.306Z,14.00
2023-01-27T23:03:10.758Z,14.45
2023-01-27T23:08:12.262Z,11.25
2023-01-27T23:13:14.273Z,14.88
2023-01-27T23:18:15.740Z,13.63
2023-01-27T23:23:18.054Z,13.35
2023-01-27T23:28:19.571Z,16.27
2023-01-27T23:33:21.336Z,15.25
2023-01-27T23:38:32.585Z,15.00
2023-01-27T23:43:35.411Z,12.02
2023-01-27T23:48:36.932Z,14.77
2023-01-27T23:53:38.469Z,17.52
2023-01-27T23:58:39.999Z,15.10
